sensor_id;sensor_type;location;lat;lon;timestamp;temperature;humidity
2783;DHT22;1399;47.072;15.452;2022-09-13T00:00:33;17.70;75.00
2783;DHT22;1399;47.072;15.452;2022-09-13T00:02:59;17.70;75.00
2783;DHT22;1399;47.072;15.452;2022-09-13T00:05:25;17.70;75.00
2783;DHT22;1399;47.072;15.452;2022-09-13T00:07:51;17.60;74.90
2783;DHT22;1399;47.072;15.452;2022-09-13T00:10:17;17.60;74.90
2783;DHT22;1399;47.072;15.452;2022-09-13T00:12:43;17.60;74.90
2783;DHT22;1399;47.072;15.452;2022-09-13T00:15:09;17.60;74.90
2783;DHT22;1399;47.072;15.452;2022-09-13T00:17:36;17.60;75.00
2783;DHT22;1399;47.072;15.452;2022-09-13T00:20:03;17.50;74.80
2783;DHT22;1399;47.072;15.452;2022-09-13T00:22:29;17.50;74.80
2783;DHT22;1399;47.072;15.452;2022-09-13T00:24:55;17.50;74.80
2783;DHT22;1399;47.072;15.452;2022-09-13T00:27:21;17.50;74.80
2783;DHT22;1399;47.072;15.452;2022-09-13T00:29:46;17.50;74.90
2783;DHT22;1399;47.072;15.452;2022-09-13T00:32:12;17.50;75.60
2783;DHT22;1399;47.072;15.452;2022-09-13T00:34:38;17.50;74.80
2783;DHT22;1399;47.072;15.452;2022-09-13T00:37:04;17.50;74.80
2783;DHT22;1399;47.072;15.452;2022-09-13T00:39:30;17.40;74.70
2783;DHT22;1399;47.072;15.452;2022-09-13T00:41:55;17.40;74.70
2783;DHT22;1399;47.072;15.452;2022-09-13T00:45:00;17.40;74.70
2783;DHT22;1399;47.072;15.452;2022-09-13T00:47:29;17.40;74.70
2783;DHT22;1399;47.072;15.452;2022-09-13T00:50:20;17.40;74.70
2783;DHT22;1399;47.072;15.452;2022-09-13T00:53:04;17.40;74.70
2783;DHT22;1399;47.072;15.452;2022-09-13T00:55:37;17.30;74.60
2783;DHT22;1399;47.072;15.452;2022-09-13T00:58:19;17.30;74.60
2783;DHT22;1399;47.072;15.452;2022-09-13T01:00:45;17.30;74.60
2783;DHT22;1399;47.072;15.452;2022-09-13T01:03:12;17.30;74.60
2783;DHT22;1399;47.072;15.452;2022-09-13T01:05:47;17.30;74.50
2783;DHT22;1399;47.072;15.452;2022-09-13T01:08:15;17.30;74.50
2783;DHT22;1399;47.072;15.452;2022-09-13T01:10:50;17.30;74.50
2783;DHT22;1399;47.072;15.452;2022-09-13T01:13:25;17.30;74.50
2783;DHT22;1399;47.072;15.452;2022-09-13T01:15:52;17.30;74.50
2783;DHT22;1399;47.072;15.452;2022-09-13T01:18:18;17.20;74.30
2783;DHT22;1399;47.072;15.452;2022-09-13T01:38:29;17.20;74.10
2783;DHT22;1399;47.072;15.452;2022-09-13T01:41:24;17.20;74.10
2783;DHT22;1399;47.072;15.452;2022-09-13T01:44:09;17.10;73.90
2783;DHT22;1399;47.072;15.452;2022-09-13T01:52:07;17.10;74.00
2783;DHT22;1399;47.072;15.452;2022-09-13T01:54:50;17.10;74.00
2783;DHT22;1399;47.072;15.452;2022-09-13T01:57:48;17.00;73.90
2783;DHT22;1399;47.072;15.452;2022-09-13T02:00:17;17.00;73.90
2783;DHT22;1399;47.072;15.452;2022-09-13T02:02:59;17.00;73.90
2783;DHT22;1399;47.072;15.452;2022-09-13T02:11:15;17.00;74.00
2783;DHT22;1399;47.072;15.452;2022-09-13T02:14:06;17.00;74.10
2783;DHT22;1399;47.072;15.452;2022-09-13T02:17:08;16.90;74.00
2783;DHT22;1399;47.072;15.452;2022-09-13T02:19:54;17.00;74.10
2783;DHT22;1399;47.072;15.452;2022-09-13T02:22:30;16.90;73.90
2783;DHT22;1399;47.072;15.452;2022-09-13T02:25:09;16.90;73.90
2783;DHT22;1399;47.072;15.452;2022-09-13T02:27:37;16.90;73.80
2783;DHT22;1399;47.072;15.452;2022-09-13T02:30:07;16.90;73.90
2783;DHT22;1399;47.072;15.452;2022-09-13T02:37:56;16.90;73.80
2783;DHT22;1399;47.072;15.452;2022-09-13T02:40:26;16.90;73.80
2783;DHT22;1399;47.072;15.452;2022-09-13T02:43:18;16.80;73.70
2783;DHT22;1399;47.072;15.452;2022-09-13T02:51:28;16.80;73.70
2783;DHT22;1399;47.072;15.452;2022-09-13T02:59:16;16.70;73.70
2783;DHT22;1399;47.072;15.452;2022-09-13T03:02:06;16.80;73.80
2783;DHT22;1399;47.072;15.452;2022-09-13T03:04:33;16.70;73.70
2783;DHT22;1399;47.072;15.452;2022-09-13T03:07:00;16.70;73.60
2783;DHT22;1399;47.072;15.452;2022-09-13T03:09:29;16.70;73.60
2783;DHT22;1399;47.072;15.452;2022-09-13T03:12:23;16.70;73.70
2783;DHT22;1399;47.072;15.452;2022-09-13T03:17:59;16.70;73.60
2783;DHT22;1399;47.072;15.452;2022-09-13T03:26:07;16.70;73.60
2783;DHT22;1399;47.072;15.452;2022-09-13T03:28:55;16.60;73.50
2783;DHT22;1399;47.072;15.452;2022-09-13T03:31:43;16.60;73.50
2783;DHT22;1399;47.072;15.452;2022-09-13T03:36:50;16.60;73.50
2783;DHT22;1399;47.072;15.452;2022-09-13T03:39:43;16.60;73.50
2783;DHT22;1399;47.072;15.452;2022-09-13T03:42:57;16.60;73.50
2783;DHT22;1399;47.072;15.452;2022-09-13T03:45:04;16.60;73.50
2783;DHT22;1399;47.072;15.452;2022-09-13T03:47:33;16.60;73.40
2783;DHT22;1399;47.072;15.452;2022-09-13T03:50:02;16.60;73.50
2783;DHT22;1399;47.072;15.452;2022-09-13T03:52:29;16.60;73.40
2783;DHT22;1399;47.072;15.452;2022-09-13T03:54:56;16.60;73.30
2783;DHT22;1399;47.072;15.452;2022-09-13T03:57:22;16.60;73.30
2783;DHT22;1399;47.072;15.452;2022-09-13T03:59:50;16.60;73.20
2783;DHT22;1399;47.072;15.452;2022-09-13T04:02:18;16.50;73.10
2783;DHT22;1399;47.072;15.452;2022-09-13T04:04:45;16.50;73.10
2783;DHT22;1399;47.072;15.452;2022-09-13T04:07:15;16.50;73.00
2783;DHT22;1399;47.072;15.452;2022-09-13T04:09:41;16.50;73.10
2783;DHT22;1399;47.072;15.452;2022-09-13T04:12:06;16.50;73.00
2783;DHT22;1399;47.072;15.452;2022-09-13T04:14:34;16.50;73.10
2783;DHT22;1399;47.072;15.452;2022-09-13T04:17:00;16.50;73.00
2783;DHT22;1399;47.072;15.452;2022-09-13T04:19:26;16.50;73.00
2783;DHT22;1399;47.072;15.452;2022-09-13T04:21:53;16.50;72.90
2783;DHT22;1399;47.072;15.452;2022-09-13T04:24:24;16.50;73.00
2783;DHT22;1399;47.072;15.452;2022-09-13T04:26:50;16.40;72.90
2783;DHT22;1399;47.072;15.452;2022-09-13T04:29:18;16.40;72.90
2783;DHT22;1399;47.072;15.452;2022-09-13T04:31:44;16.50;72.90
2783;DHT22;1399;47.072;15.452;2022-09-13T04:34:10;16.40;72.80
2783;DHT22;1399;47.072;15.452;2022-09-13T04:36:36;16.50;72.90
2783;DHT22;1399;47.072;15.452;2022-09-13T04:39:02;16.40;72.80
2783;DHT22;1399;47.072;15.452;2022-09-13T04:41:28;16.40;72.90
2783;DHT22;1399;47.072;15.452;2022-09-13T04:43:54;16.40;72.80
2783;DHT22;1399;47.072;15.452;2022-09-13T04:46:20;16.40;72.80
2783;DHT22;1399;47.072;15.452;2022-09-13T04:48:50;16.40;72.80
2783;DHT22;1399;47.072;15.452;2022-09-13T04:51:17;16.40;72.80
2783;DHT22;1399;47.072;15.452;2022-09-13T04:53:46;16.40;72.80
2783;DHT22;1399;47.072;15.452;2022-09-13T04:56:12;16.40;72.80
2783;DHT22;1399;47.072;15.452;2022-09-13T04:58:40;16.40;72.80
2783;DHT22;1399;47.072;15.452;2022-09-13T05:01:08;16.40;72.80
2783;DHT22;1399;47.072;15.452;2022-09-13T05:03:34;16.40;72.80
2783;DHT22;1399;47.072;15.452;2022-09-13T05:06:05;16.40;72.70
2783;DHT22;1399;47.072;15.452;2022-09-13T05:08:31;16.40;72.60
2783;DHT22;1399;47.072;15.452;2022-09-13T05:10:58;16.40;72.60
2783;DHT22;1399;47.072;15.452;2022-09-13T05:13:24;16.40;72.60
2783;DHT22;1399;47.072;15.452;2022-09-13T05:15:54;16.40;72.60
2783;DHT22;1399;47.072;15.452;2022-09-13T05:18:21;16.40;72.50
2783;DHT22;1399;47.072;15.452;2022-09-13T05:20:47;16.50;72.60
2783;DHT22;1399;47.072;15.452;2022-09-13T05:23:13;16.40;72.50
2783;DHT22;1399;47.072;15.452;2022-09-13T05:25:38;16.50;72.60
2783;DHT22;1399;47.072;15.452;2022-09-13T05:28:04;16.50;72.50
2783;DHT22;1399;47.072;15.452;2022-09-13T05:30:30;16.50;72.60
2783;DHT22;1399;47.072;15.452;2022-09-13T05:32:55;16.50;72.50
2783;DHT22;1399;47.072;15.452;2022-09-13T05:35:22;16.50;72.50
2783;DHT22;1399;47.072;15.452;2022-09-13T05:37:48;16.50;72.50
2783;DHT22;1399;47.072;15.452;2022-09-13T05:40:14;16.50;72.50
2783;DHT22;1399;47.072;15.452;2022-09-13T05:42:39;16.60;72.50
2783;DHT22;1399;47.072;15.452;2022-09-13T05:45:06;16.60;72.50
2783;DHT22;1399;47.072;15.452;2022-09-13T05:47:32;16.60;72.50
2783;DHT22;1399;47.072;15.452;2022-09-13T05:49:57;16.60;72.50
2783;DHT22;1399;47.072;15.452;2022-09-13T05:52:23;16.60;72.50
2783;DHT22;1399;47.072;15.452;2022-09-13T05:54:49;16.60;72.40
2783;DHT22;1399;47.072;15.452;2022-09-13T05:57:15;16.70;72.50
2783;DHT22;1399;47.072;15.452;2022-09-13T05:59:40;16.70;72.50
2783;DHT22;1399;47.072;15.452;2022-09-13T06:02:08;16.70;72.50
2783;DHT22;1399;47.072;15.452;2022-09-13T06:04:34;16.70;72.40
2783;DHT22;1399;47.072;15.452;2022-09-13T06:07:00;16.70;72.40
2783;DHT22;1399;47.072;15.452;2022-09-13T06:09:26;16.80;72.70
2783;DHT22;1399;47.072;15.452;2022-09-13T06:11:51;16.80;72.70
2783;DHT22;1399;47.072;15.452;2022-09-13T06:14:17;17.00;72.60
2783;DHT22;1399;47.072;15.452;2022-09-13T06:16:43;17.10;72.30
2783;DHT22;1399;47.072;15.452;2022-09-13T06:19:08;17.40;72.10
2783;DHT22;1399;47.072;15.452;2022-09-13T06:21:34;17.60;71.60
2783;DHT22;1399;47.072;15.452;2022-09-13T06:24:00;17.70;71.20
2783;DHT22;1399;47.072;15.452;2022-09-13T06:26:27;17.90;70.70
2783;DHT22;1399;47.072;15.452;2022-09-13T06:28:55;18.00;70.30
2783;DHT22;1399;47.072;15.452;2022-09-13T06:31:23;18.10;70.00
2783;DHT22;1399;47.072;15.452;2022-09-13T06:33:55;18.10;69.70
2783;DHT22;1399;47.072;15.452;2022-09-13T06:36:21;18.20;69.60
2783;DHT22;1399;47.072;15.452;2022-09-13T06:38:48;18.20;69.50
2783;DHT22;1399;47.072;15.452;2022-09-13T06:41:16;18.30;69.40
2783;DHT22;1399;47.072;15.452;2022-09-13T06:43:45;18.30;69.30
2783;DHT22;1399;47.072;15.452;2022-09-13T06:46:16;18.30;69.10
2783;DHT22;1399;47.072;15.452;2022-09-13T06:48:43;18.30;69.00
2783;DHT22;1399;47.072;15.452;2022-09-13T06:51:14;18.40;69.00
2783;DHT22;1399;47.072;15.452;2022-09-13T06:53:42;18.40;68.90
2783;DHT22;1399;47.072;15.452;2022-09-13T06:56:18;18.40;68.70
2783;DHT22;1399;47.072;15.452;2022-09-13T06:58:47;18.40;68.60
2783;DHT22;1399;47.072;15.452;2022-09-13T07:01:22;18.50;68.60
2783;DHT22;1399;47.072;15.452;2022-09-13T07:03:53;18.50;68.40
2783;DHT22;1399;47.072;15.452;2022-09-13T07:06:22;18.50;68.30
2783;DHT22;1399;47.072;15.452;2022-09-13T07:08:49;18.60;68.30
2783;DHT22;1399;47.072;15.452;2022-09-13T07:11:17;18.60;68.20
2783;DHT22;1399;47.072;15.452;2022-09-13T07:13:47;18.60;68.10
2783;DHT22;1399;47.072;15.452;2022-09-13T07:16:14;18.60;68.00
2783;DHT22;1399;47.072;15.452;2022-09-13T07:18:40;18.60;67.90
2783;DHT22;1399;47.072;15.452;2022-09-13T07:21:08;18.70;68.00
2783;DHT22;1399;47.072;15.452;2022-09-13T07:23:35;18.70;68.00
2783;DHT22;1399;47.072;15.452;2022-09-13T07:26:02;18.70;68.00
2783;DHT22;1399;47.072;15.452;2022-09-13T07:28:34;18.70;67.90
2783;DHT22;1399;47.072;15.452;2022-09-13T07:33:34;18.70;67.80
2783;DHT22;1399;47.072;15.452;2022-09-13T07:36:00;18.70;67.80
2783;DHT22;1399;47.072;15.452;2022-09-13T07:38:34;18.80;67.80
2783;DHT22;1399;47.072;15.452;2022-09-13T07:41:01;18.80;67.70
2783;DHT22;1399;47.072;15.452;2022-09-13T07:43:32;18.80;67.70
2783;DHT22;1399;47.072;15.452;2022-09-13T07:48:31;18.90;67.70
2783;DHT22;1399;47.072;15.452;2022-09-13T07:51:01;18.90;67.50
2783;DHT22;1399;47.072;15.452;2022-09-13T07:53:28;18.90;67.50
2783;DHT22;1399;47.072;15.452;2022-09-13T07:56:00;19.00;67.50
2783;DHT22;1399;47.072;15.452;2022-09-13T07:58:26;19.00;67.40
2783;DHT22;1399;47.072;15.452;2022-09-13T08:00:51;19.00;67.40
2783;DHT22;1399;47.072;15.452;2022-09-13T08:03:17;19.00;67.30
2783;DHT22;1399;47.072;15.452;2022-09-13T08:05:43;19.10;67.30
2783;DHT22;1399;47.072;15.452;2022-09-13T08:08:09;19.10;67.20
2783;DHT22;1399;47.072;15.452;2022-09-13T08:10:34;19.10;67.10
2783;DHT22;1399;47.072;15.452;2022-09-13T08:13:00;19.20;67.00
2783;DHT22;1399;47.072;15.452;2022-09-13T08:15:26;19.20;66.90
2783;DHT22;1399;47.072;15.452;2022-09-13T08:17:53;19.20;66.80
2783;DHT22;1399;47.072;15.452;2022-09-13T08:20:19;19.30;66.80
2783;DHT22;1399;47.072;15.452;2022-09-13T08:22:45;19.30;66.70
2783;DHT22;1399;47.072;15.452;2022-09-13T08:25:11;19.40;66.80
2783;DHT22;1399;47.072;15.452;2022-09-13T08:27:37;19.40;66.80
2783;DHT22;1399;47.072;15.452;2022-09-13T08:30:03;19.40;66.60
2783;DHT22;1399;47.072;15.452;2022-09-13T08:32:29;19.50;66.60
2783;DHT22;1399;47.072;15.452;2022-09-13T08:34:55;19.50;67.40
2783;DHT22;1399;47.072;15.452;2022-09-13T08:37:21;19.50;66.40
2783;DHT22;1399;47.072;15.452;2022-09-13T08:39:46;19.60;66.40
2783;DHT22;1399;47.072;15.452;2022-09-13T08:42:20;19.60;66.40
2783;DHT22;1399;47.072;15.452;2022-09-13T08:44:52;19.70;66.30
2783;DHT22;1399;47.072;15.452;2022-09-13T08:47:37;19.60;66.20
2783;DHT22;1399;47.072;15.452;2022-09-13T08:55:33;19.80;66.10
2783;DHT22;1399;47.072;15.452;2022-09-13T09:00:54;19.80;65.80
2783;DHT22;1399;47.072;15.452;2022-09-13T09:04:11;19.90;65.90
2783;DHT22;1399;47.072;15.452;2022-09-13T09:06:33;19.90;65.80
2783;DHT22;1399;47.072;15.452;2022-09-13T09:09:05;19.90;65.70
2783;DHT22;1399;47.072;15.452;2022-09-13T09:11:43;20.00;65.80
2783;DHT22;1399;47.072;15.452;2022-09-13T09:19:29;20.00;65.60
2783;DHT22;1399;47.072;15.452;2022-09-13T09:22:02;20.10;65.60
2783;DHT22;1399;47.072;15.452;2022-09-13T09:24:33;20.10;65.60
2783;DHT22;1399;47.072;15.452;2022-09-13T09:27:01;20.10;65.50
2783;DHT22;1399;47.072;15.452;2022-09-13T09:29:36;20.20;65.50
2783;DHT22;1399;47.072;15.452;2022-09-13T09:32:47;20.20;65.40
2783;DHT22;1399;47.072;15.452;2022-09-13T09:40:52;20.30;65.20
2783;DHT22;1399;47.072;15.452;2022-09-13T09:43:34;20.40;65.10
2783;DHT22;1399;47.072;15.452;2022-09-13T09:46:02;20.40;65.00
2783;DHT22;1399;47.072;15.452;2022-09-13T09:48:36;20.40;64.80
2783;DHT22;1399;47.072;15.452;2022-09-13T09:51:04;20.50;64.90
2783;DHT22;1399;47.072;15.452;2022-09-13T09:53:38;20.50;64.90
2783;DHT22;1399;47.072;15.452;2022-09-13T09:56:14;20.50;64.90
2783;DHT22;1399;47.072;15.452;2022-09-13T09:58:45;20.50;64.80
2783;DHT22;1399;47.072;15.452;2022-09-13T10:06:21;20.60;64.70
2783;DHT22;1399;47.072;15.452;2022-09-13T10:09:04;20.60;64.60
2783;DHT22;1399;47.072;15.452;2022-09-13T10:11:47;20.60;64.70
2783;DHT22;1399;47.072;15.452;2022-09-13T10:14:40;20.60;64.70
2783;DHT22;1399;47.072;15.452;2022-09-13T10:17:15;20.60;64.80
2783;DHT22;1399;47.072;15.452;2022-09-13T10:19:56;20.60;64.80
2783;DHT22;1399;47.072;15.452;2022-09-13T10:22:24;20.70;65.00
2783;DHT22;1399;47.072;15.452;2022-09-13T10:24:51;20.70;65.00
2783;DHT22;1399;47.072;15.452;2022-09-13T10:27:27;20.70;65.10
2783;DHT22;1399;47.072;15.452;2022-09-13T10:29:57;20.70;65.20
2783;DHT22;1399;47.072;15.452;2022-09-13T10:32:26;20.80;65.30
2783;DHT22;1399;47.072;15.452;2022-09-13T10:34:53;20.80;65.30
2783;DHT22;1399;47.072;15.452;2022-09-13T10:37:23;20.80;65.30
2783;DHT22;1399;47.072;15.452;2022-09-13T10:40:01;20.80;65.30
2783;DHT22;1399;47.072;15.452;2022-09-13T10:42:28;20.80;65.30
2783;DHT22;1399;47.072;15.452;2022-09-13T10:45:02;20.90;65.50
2783;DHT22;1399;47.072;15.452;2022-09-13T10:47:44;20.90;65.50
2783;DHT22;1399;47.072;15.452;2022-09-13T10:52:47;20.90;65.40
2783;DHT22;1399;47.072;15.452;2022-09-13T10:57:46;21.00;65.50
2783;DHT22;1399;47.072;15.452;2022-09-13T11:00:15;21.00;65.40
2783;DHT22;1399;47.072;15.452;2022-09-13T11:03:18;21.10;65.40
2783;DHT22;1399;47.072;15.452;2022-09-13T11:09:08;21.10;65.30
2783;DHT22;1399;47.072;15.452;2022-09-13T11:12:26;21.10;65.20
2783;DHT22;1399;47.072;15.452;2022-09-13T11:20:26;21.30;65.20
2783;DHT22;1399;47.072;15.452;2022-09-13T11:39:14;21.60;65.10
2783;DHT22;1399;47.072;15.452;2022-09-13T11:50:44;21.80;65.00
2783;DHT22;1399;47.072;15.452;2022-09-13T11:55:49;21.90;64.80
2783;DHT22;1399;47.072;15.452;2022-09-13T11:58:28;21.90;64.70
2783;DHT22;1399;47.072;15.452;2022-09-13T12:01:04;22.00;64.80
2783;DHT22;1399;47.072;15.452;2022-09-13T12:06:12;22.00;64.80
2783;DHT22;1399;47.072;15.452;2022-09-13T12:08:56;22.10;65.00
2783;DHT22;1399;47.072;15.452;2022-09-13T12:11:29;22.10;65.00
2783;DHT22;1399;47.072;15.452;2022-09-13T12:13:58;22.10;64.90
2783;DHT22;1399;47.072;15.452;2022-09-13T12:16:32;22.10;65.00
2783;DHT22;1399;47.072;15.452;2022-09-13T12:19:05;22.20;65.10
2783;DHT22;1399;47.072;15.452;2022-09-13T12:21:36;22.20;65.10
2783;DHT22;1399;47.072;15.452;2022-09-13T12:24:13;22.20;65.10
2783;DHT22;1399;47.072;15.452;2022-09-13T12:26:49;22.20;65.00
2783;DHT22;1399;47.072;15.452;2022-09-13T12:29:28;22.30;65.20
2783;DHT22;1399;47.072;15.452;2022-09-13T12:31:59;22.30;65.10
2783;DHT22;1399;47.072;15.452;2022-09-13T12:34:34;22.30;65.10
2783;DHT22;1399;47.072;15.452;2022-09-13T12:46:02;22.40;65.00
2783;DHT22;1399;47.072;15.452;2022-09-13T13:00:20;22.50;64.90
2783;DHT22;1399;47.072;15.452;2022-09-13T13:02:56;22.50;64.80
2783;DHT22;1399;47.072;15.452;2022-09-13T13:10:45;22.60;65.00
2783;DHT22;1399;47.072;15.452;2022-09-13T13:13:54;22.60;64.90
2783;DHT22;1399;47.072;15.452;2022-09-13T13:18:49;22.60;64.60
2783;DHT22;1399;47.072;15.452;2022-09-13T13:21:24;22.70;64.70
2783;DHT22;1399;47.072;15.452;2022-09-13T13:26:43;22.70;64.80
2783;DHT22;1399;47.072;15.452;2022-09-13T13:37:43;22.70;64.70
2783;DHT22;1399;47.072;15.452;2022-09-13T13:40:20;22.70;64.90
2783;DHT22;1399;47.072;15.452;2022-09-13T13:42:46;22.70;64.90
2783;DHT22;1399;47.072;15.452;2022-09-13T13:48:10;22.60;65.10
2783;DHT22;1399;47.072;15.452;2022-09-13T13:51:17;22.60;65.10
2783;DHT22;1399;47.072;15.452;2022-09-13T13:53:57;22.60;65.20
2783;DHT22;1399;47.072;15.452;2022-09-13T13:56:26;22.60;65.30
2783;DHT22;1399;47.072;15.452;2022-09-13T13:59:18;22.60;65.40
2783;DHT22;1399;47.072;15.452;2022-09-13T14:01:50;22.60;65.40
2783;DHT22;1399;47.072;15.452;2022-09-13T14:04:45;22.60;65.40
2783;DHT22;1399;47.072;15.452;2022-09-13T14:13:14;22.50;65.60
2783;DHT22;1399;47.072;15.452;2022-09-13T14:21:33;22.40;66.00
2783;DHT22;1399;47.072;15.452;2022-09-13T14:24:21;22.40;66.10
2783;DHT22;1399;47.072;15.452;2022-09-13T14:26:51;22.40;66.10
2783;DHT22;1399;47.072;15.452;2022-09-13T14:29:22;22.40;66.30
2783;DHT22;1399;47.072;15.452;2022-09-13T14:31:53;22.40;66.30
2783;DHT22;1399;47.072;15.452;2022-09-13T14:34:26;22.40;66.30
2783;DHT22;1399;47.072;15.452;2022-09-13T14:37:04;22.40;66.20
2783;DHT22;1399;47.072;15.452;2022-09-13T14:39:30;22.40;66.30
2783;DHT22;1399;47.072;15.452;2022-09-13T14:42:20;22.40;66.30
2783;DHT22;1399;47.072;15.452;2022-09-13T14:44:46;22.40;66.30
2783;DHT22;1399;47.072;15.452;2022-09-13T14:47:34;22.40;66.40
2783;DHT22;1399;47.072;15.452;2022-09-13T14:50:07;22.30;66.40
2783;DHT22;1399;47.072;15.452;2022-09-13T14:55:13;22.30;66.60
2783;DHT22;1399;47.072;15.452;2022-09-13T14:57:47;22.30;66.80
2783;DHT22;1399;47.072;15.452;2022-09-13T15:00:17;22.20;66.70
2783;DHT22;1399;47.072;15.452;2022-09-13T15:02:58;22.20;66.80
2783;DHT22;1399;47.072;15.452;2022-09-13T15:05:31;22.20;67.90
2783;DHT22;1399;47.072;15.452;2022-09-13T15:07:58;22.10;67.00
2783;DHT22;1399;47.072;15.452;2022-09-13T15:10:27;22.20;67.20
2783;DHT22;1399;47.072;15.452;2022-09-13T15:17:58;22.10;67.10
2783;DHT22;1399;47.072;15.452;2022-09-13T15:20:45;22.10;67.10
2783;DHT22;1399;47.072;15.452;2022-09-13T15:23:22;22.10;67.20
2783;DHT22;1399;47.072;15.452;2022-09-13T15:25:58;22.10;67.30
2783;DHT22;1399;47.072;15.452;2022-09-13T15:28:28;22.10;67.30
2783;DHT22;1399;47.072;15.452;2022-09-13T15:30:56;22.10;67.30
2783;DHT22;1399;47.072;15.452;2022-09-13T15:33:31;22.10;67.30
2783;DHT22;1399;47.072;15.452;2022-09-13T15:36:26;22.10;67.30
2783;DHT22;1399;47.072;15.452;2022-09-13T15:39:12;22.10;67.30
2783;DHT22;1399;47.072;15.452;2022-09-13T15:41:57;22.10;67.40
2783;DHT22;1399;47.072;15.452;2022-09-13T15:44:24;22.00;67.20
2783;DHT22;1399;47.072;15.452;2022-09-13T15:46:52;22.00;67.30
2783;DHT22;1399;47.072;15.452;2022-09-13T15:49:21;22.00;67.30
2783;DHT22;1399;47.072;15.452;2022-09-13T15:51:48;22.00;67.40
2783;DHT22;1399;47.072;15.452;2022-09-13T15:54:17;22.00;67.40
2783;DHT22;1399;47.072;15.452;2022-09-13T15:56:46;22.00;67.40
2783;DHT22;1399;47.072;15.452;2022-09-13T15:59:13;22.00;67.70
2783;DHT22;1399;47.072;15.452;2022-09-13T16:01:40;22.00;67.40
2783;DHT22;1399;47.072;15.452;2022-09-13T16:04:06;22.00;67.40
2783;DHT22;1399;47.072;15.452;2022-09-13T16:06:33;22.00;67.40
2783;DHT22;1399;47.072;15.452;2022-09-13T16:08:58;22.00;67.50
2783;DHT22;1399;47.072;15.452;2022-09-13T16:11:25;21.90;67.50
2783;DHT22;1399;47.072;15.452;2022-09-13T16:13:51;21.90;67.50
2783;DHT22;1399;47.072;15.452;2022-09-13T16:16:17;21.90;67.60
2783;DHT22;1399;47.072;15.452;2022-09-13T16:18:43;21.90;67.70
2783;DHT22;1399;47.072;15.452;2022-09-13T16:21:09;21.90;67.80
2783;DHT22;1399;47.072;15.452;2022-09-13T16:23:35;21.80;67.80
2783;DHT22;1399;47.072;15.452;2022-09-13T16:26:00;21.80;67.90
2783;DHT22;1399;47.072;15.452;2022-09-13T16:28:26;21.80;68.00
2783;DHT22;1399;47.072;15.452;2022-09-13T16:30:52;21.80;68.10
2783;DHT22;1399;47.072;15.452;2022-09-13T16:33:19;21.80;68.10
2783;DHT22;1399;47.072;15.452;2022-09-13T16:35:45;21.80;68.20
2783;DHT22;1399;47.072;15.452;2022-09-13T16:38:11;21.80;68.20
2783;DHT22;1399;47.072;15.452;2022-09-13T16:40:38;21.70;68.20
2783;DHT22;1399;47.072;15.452;2022-09-13T16:43:05;21.70;68.30
2783;DHT22;1399;47.072;15.452;2022-09-13T16:45:31;21.70;68.40
2783;DHT22;1399;47.072;15.452;2022-09-13T16:47:57;21.60;68.40
2783;DHT22;1399;47.072;15.452;2022-09-13T16:50:23;21.60;68.50
2783;DHT22;1399;47.072;15.452;2022-09-13T16:52:49;21.60;68.60
2783;DHT22;1399;47.072;15.452;2022-09-13T16:55:15;21.50;68.50
2783;DHT22;1399;47.072;15.452;2022-09-13T16:57:40;21.50;68.60
2783;DHT22;1399;47.072;15.452;2022-09-13T17:00:07;21.50;68.70
2783;DHT22;1399;47.072;15.452;2022-09-13T17:02:35;21.50;68.80
2783;DHT22;1399;47.072;15.452;2022-09-13T17:05:01;21.40;68.70
2783;DHT22;1399;47.072;15.452;2022-09-13T17:07:28;21.40;68.80
2783;DHT22;1399;47.072;15.452;2022-09-13T17:09:54;21.40;68.90
2783;DHT22;1399;47.072;15.452;2022-09-13T17:12:19;21.40;69.00
2783;DHT22;1399;47.072;15.452;2022-09-13T17:14:45;21.40;69.10
2783;DHT22;1399;47.072;15.452;2022-09-13T17:17:13;21.40;69.20
2783;DHT22;1399;47.072;15.452;2022-09-13T17:19:40;21.30;69.00
2783;DHT22;1399;47.072;15.452;2022-09-13T17:22:06;21.30;69.20
2783;DHT22;1399;47.072;15.452;2022-09-13T17:24:34;21.30;69.20
2783;DHT22;1399;47.072;15.452;2022-09-13T17:27:02;21.30;69.30
2783;DHT22;1399;47.072;15.452;2022-09-13T17:29:29;21.30;69.40
2783;DHT22;1399;47.072;15.452;2022-09-13T17:32:00;21.30;69.40
2783;DHT22;1399;47.072;15.452;2022-09-13T17:34:26;21.20;69.30
2783;DHT22;1399;47.072;15.452;2022-09-13T17:36:53;21.20;69.50
2783;DHT22;1399;47.072;15.452;2022-09-13T17:39:19;21.20;69.60
2783;DHT22;1399;47.072;15.452;2022-09-13T17:41:46;21.20;69.70
2783;DHT22;1399;47.072;15.452;2022-09-13T17:44:13;21.20;69.90
2783;DHT22;1399;47.072;15.452;2022-09-13T17:46:40;21.10;69.90
2783;DHT22;1399;47.072;15.452;2022-09-13T17:49:07;21.10;70.10
2783;DHT22;1399;47.072;15.452;2022-09-13T17:51:33;21.10;70.30
2783;DHT22;1399;47.072;15.452;2022-09-13T17:54:01;21.10;70.50
2783;DHT22;1399;47.072;15.452;2022-09-13T17:59:13;21.10;70.90
2783;DHT22;1399;47.072;15.452;2022-09-13T18:01:42;21.10;71.20
2783;DHT22;1399;47.072;15.452;2022-09-13T18:04:09;21.00;71.30
2783;DHT22;1399;47.072;15.452;2022-09-13T18:06:35;21.00;71.60
2783;DHT22;1399;47.072;15.452;2022-09-13T18:09:02;21.00;71.70
2783;DHT22;1399;47.072;15.452;2022-09-13T18:11:28;21.00;71.90
2783;DHT22;1399;47.072;15.452;2022-09-13T18:13:54;21.00;72.10
2783;DHT22;1399;47.072;15.452;2022-09-13T18:16:23;21.00;72.30
2783;DHT22;1399;47.072;15.452;2022-09-13T18:18:51;20.90;72.40
2783;DHT22;1399;47.072;15.452;2022-09-13T18:21:19;20.90;72.60
2783;DHT22;1399;47.072;15.452;2022-09-13T18:23:50;20.90;72.80
2783;DHT22;1399;47.072;15.452;2022-09-13T18:26:20;20.80;72.90
2783;DHT22;1399;47.072;15.452;2022-09-13T18:28:51;20.80;73.10
2783;DHT22;1399;47.072;15.452;2022-09-13T18:31:17;20.80;73.20
2783;DHT22;1399;47.072;15.452;2022-09-13T18:33:44;20.80;73.50
2783;DHT22;1399;47.072;15.452;2022-09-13T18:36:13;20.80;73.60
2783;DHT22;1399;47.072;15.452;2022-09-13T18:38:41;20.80;73.80
2783;DHT22;1399;47.072;15.452;2022-09-13T18:41:09;20.80;74.10
2783;DHT22;1399;47.072;15.452;2022-09-13T18:43:37;20.80;74.20
2783;DHT22;1399;47.072;15.452;2022-09-13T18:46:05;20.80;74.30
2783;DHT22;1399;47.072;15.452;2022-09-13T18:48:33;20.70;74.40
2783;DHT22;1399;47.072;15.452;2022-09-13T18:50:59;20.70;74.70
2783;DHT22;1399;47.072;15.452;2022-09-13T18:53:25;20.70;74.80
2783;DHT22;1399;47.072;15.452;2022-09-13T18:55:51;20.70;75.00
2783;DHT22;1399;47.072;15.452;2022-09-13T18:58:17;20.70;75.30
2783;DHT22;1399;47.072;15.452;2022-09-13T19:00:43;20.60;75.50
2783;DHT22;1399;47.072;15.452;2022-09-13T19:03:09;20.60;75.70
2783;DHT22;1399;47.072;15.452;2022-09-13T19:05:36;20.60;75.90
2783;DHT22;1399;47.072;15.452;2022-09-13T19:08:08;20.60;76.10
2783;DHT22;1399;47.072;15.452;2022-09-13T19:10:35;20.60;76.30
2783;DHT22;1399;47.072;15.452;2022-09-13T19:13:01;20.50;76.30
2783;DHT22;1399;47.072;15.452;2022-09-13T19:15:27;20.60;76.60
2783;DHT22;1399;47.072;15.452;2022-09-13T19:17:53;20.50;76.60
2783;DHT22;1399;47.072;15.452;2022-09-13T19:20:19;20.50;76.70
2783;DHT22;1399;47.072;15.452;2022-09-13T19:22:47;20.50;76.90